createdAt,value
2023-03-16T00:02:20.104Z,2.88
2023-03-16T00:04:47.595Z,6.65
2023-03-16T00:07:14.928Z,4.32
2023-03-16T00:09:41.864Z,3.83
2023-03-16T00:12:15.795Z,8.05
2023-03-16T00:14:44.667Z,5.33
2023-03-16T00:17:18.815Z,24.73
2023-03-16T00:19:51.646Z,19.42
2023-03-16T00:22:18.195Z,16.00
2023-03-16T00:24:44.870Z,15.60
2023-03-16T00:27:14.828Z,13.23
2023-03-16T00:29:46.965Z,11.73
2023-03-16T00:32:34.167Z,10.05
2023-03-16T00:35:04.488Z,10.77
2023-03-16T00:37:36.976Z,10.45
2023-03-16T00:40:04.137Z,9.77
2023-03-16T00:42:31.462Z,8.75
2023-03-16T00:44:59.563Z,9.05
2023-03-16T00:47:29.470Z,9.43
2023-03-16T00:49:56.741Z,7.93
2023-03-16T00:52:23.862Z,8.85
2023-03-16T00:54:52.866Z,9.25
2023-03-16T00:57:20.164Z,9.13
2023-03-16T00:59:47.400Z,7.60
2023-03-16T01:02:16.333Z,6.40
2023-03-16T01:04:43.786Z,8.05
2023-03-16T01:07:12.950Z,7.75
2023-03-16T01:09:40.489Z,6.53
2023-03-16T01:12:09.918Z,8.02
2023-03-16T01:14:37.312Z,8.32
2023-03-16T01:17:05.022Z,6.07
2023-03-16T01:19:34.900Z,7.47
2023-03-16T01:22:06.205Z,6.45
2023-03-16T01:24:34.754Z,6.60
2023-03-16T01:27:01.764Z,6.88
2023-03-16T01:29:28.422Z,6.38
2023-03-16T01:31:57.820Z,6.75
2023-03-16T01:34:24.636Z,8.13
2023-03-16T01:36:51.656Z,8.40
2023-03-16T01:39:26.698Z,7.10
2023-03-16T01:41:53.513Z,5.43
2023-03-16T01:44:24.338Z,5.30
2023-03-16T01:46:51.406Z,5.63
2023-03-16T01:49:36.814Z,6.25
2023-03-16T01:52:09.110Z,8.20
2023-03-16T01:54:46.274Z,5.38
2023-03-16T01:57:15.734Z,6.00
2023-03-16T01:59:51.451Z,4.47
2023-03-16T02:02:27.585Z,5.18
2023-03-16T02:05:12.229Z,7.07
2023-03-16T02:07:45.666Z,4.72
2023-03-16T02:10:12.931Z,4.28
2023-03-16T02:12:39.539Z,4.30
2023-03-16T02:15:07.043Z,4.60
2023-03-16T02:17:34.973Z,4.10
2023-03-16T02:20:28.648Z,4.18
2023-03-16T02:22:55.460Z,5.45
2023-03-16T02:25:25.232Z,3.45
2023-03-16T02:27:52.076Z,4.65
2023-03-16T02:30:20.177Z,4.65
2023-03-16T02:32:57.036Z,3.80
2023-03-16T02:35:23.793Z,5.65
2023-03-16T02:37:52.546Z,3.80
2023-03-16T02:40:23.256Z,4.68
2023-03-16T02:43:03.354Z,4.47
2023-03-16T02:45:45.533Z,5.47
2023-03-16T02:48:22.418Z,4.65
2023-03-16T02:50:52.636Z,5.03
2023-03-16T02:53:19.679Z,3.30
2023-03-16T02:55:46.657Z,3.35
2023-03-16T02:58:14.699Z,3.63
2023-03-16T03:00:42.334Z,3.92
2023-03-16T03:03:09.622Z,3.40
2023-03-16T03:05:38.081Z,3.70
2023-03-16T03:08:05.272Z,4.55
2023-03-16T03:10:32.608Z,3.85
2023-03-16T03:12:59.423Z,4.38
2023-03-16T03:15:26.172Z,4.43
2023-03-16T03:18:04.364Z,4.80
2023-03-16T03:20:31.842Z,5.45
2023-03-16T03:22:58.521Z,3.97
2023-03-16T03:25:25.346Z,3.65
2023-03-16T03:27:57.004Z,3.58
2023-03-16T03:30:25.046Z,3.67
2023-03-16T03:32:52.514Z,4.55
2023-03-16T03:35:21.361Z,2.47
2023-03-16T03:37:48.226Z,3.00
2023-03-16T03:40:18.510Z,3.63
2023-03-16T03:42:48.212Z,2.72
2023-03-16T03:45:15.622Z,4.00
2023-03-16T03:47:43.405Z,2.70
2023-03-16T03:50:14.133Z,2.78
2023-03-16T03:53:04.568Z,2.97
2023-03-16T03:55:36.939Z,3.10
2023-03-16T03:58:03.643Z,3.75
2023-03-16T04:00:30.267Z,3.10
2023-03-16T04:02:57.144Z,2.50
2023-03-16T04:05:30.917Z,3.03
2023-03-16T04:07:57.643Z,2.55
2023-03-16T04:10:26.449Z,3.03
2023-03-16T04:12:53.455Z,2.95
2023-03-16T04:15:20.079Z,2.97
2023-03-16T04:17:57.912Z,3.90
2023-03-16T04:20:25.355Z,2.40
2023-03-16T04:22:58.410Z,3.25
2023-03-16T04:25:27.083Z,2.33
2023-03-16T04:27:54.105Z,4.00
2023-03-16T04:30:23.497Z,3.53
2023-03-16T04:32:53.982Z,3.78
2023-03-16T04:35:22.266Z,2.75
2023-03-16T04:37:53.382Z,4.32
2023-03-16T04:40:26.467Z,3.88
2023-03-16T04:43:02.697Z,4.00
2023-03-16T04:45:30.989Z,3.85
2023-03-16T04:47:57.847Z,3.45
2023-03-16T04:50:24.423Z,3.50
2023-03-16T04:52:54.151Z,6.90
2023-03-16T04:55:22.905Z,3.45
2023-03-16T04:57:50.712Z,4.10
2023-03-16T05:00:19.443Z,3.55
2023-03-16T05:03:21.839Z,4.25
2023-03-16T05:05:49.962Z,4.18
2023-03-16T05:08:17.141Z,3.78
2023-03-16T05:10:48.481Z,4.05
2023-03-16T05:13:16.349Z,3.47
2023-03-16T05:15:45.573Z,4.32
2023-03-16T05:18:33.242Z,4.07
2023-03-16T05:21:00.261Z,3.22
2023-03-16T05:23:34.285Z,3.45
2023-03-16T05:26:03.519Z,3.90
2023-03-16T05:28:32.721Z,3.60
2023-03-16T05:31:03.838Z,3.22
2023-03-16T05:33:36.702Z,3.97
2023-03-16T05:36:07.458Z,4.93
2023-03-16T05:38:36.776Z,6.13
2023-03-16T05:41:06.065Z,8.52
2023-03-16T05:43:47.864Z,7.70
2023-03-16T05:46:15.720Z,10.13
2023-03-16T05:48:42.649Z,13.18
2023-03-16T05:51:14.247Z,8.63
2023-03-16T05:53:41.939Z,10.88
2023-03-16T05:56:17.099Z,12.82
2023-03-16T05:58:46.135Z,10.18
2023-03-16T06:01:13.348Z,10.73
2023-03-16T06:03:42.159Z,10.02
2023-03-16T06:06:13.279Z,9.77
2023-03-16T06:08:50.976Z,10.27
2023-03-16T06:11:19.500Z,10.23
2023-03-16T06:13:46.697Z,11.10
2023-03-16T06:16:14.451Z,10.80
2023-03-16T06:18:41.434Z,9.00
2023-03-16T06:21:08.868Z,12.60
2023-03-16T06:23:35.962Z,9.23
2023-03-16T06:26:05.314Z,10.55
2023-03-16T06:28:34.438Z,9.23
2023-03-16T06:31:01.149Z,9.25
2023-03-16T06:33:32.178Z,10.25
2023-03-16T06:35:58.945Z,10.27
2023-03-16T06:38:36.081Z,8.55
2023-03-16T06:41:06.421Z,7.57
2023-03-16T06:43:34.688Z,8.40
2023-03-16T06:46:01.801Z,8.13
2023-03-16T06:48:29.056Z,8.65
2023-03-16T06:50:55.933Z,8.57
2023-03-16T06:53:26.290Z,9.50
2023-03-16T06:55:53.929Z,6.70
2023-03-16T06:58:21.238Z,8.60
2023-03-16T07:00:47.937Z,6.78
2023-03-16T07:03:14.560Z,7.80
2023-03-16T07:05:47.427Z,5.80
2023-03-16T07:08:15.179Z,6.40
2023-03-16T07:10:42.372Z,6.97
2023-03-16T07:13:09.046Z,6.53
2023-03-16T07:15:35.629Z,7.45
2023-03-16T07:18:03.051Z,7.43
2023-03-16T07:20:32.262Z,7.25
2023-03-16T07:23:01.297Z,6.20
2023-03-16T07:25:28.098Z,6.07
2023-03-16T07:27:54.968Z,5.63
2023-03-16T07:30:27.905Z,4.90
2023-03-16T07:32:54.917Z,7.75
2023-03-16T07:35:23.899Z,7.13
2023-03-16T07:37:50.683Z,5.05
2023-03-16T07:40:18.814Z,5.40
2023-03-16T07:42:45.764Z,5.43
2023-03-16T07:45:25.676Z,4.93
2023-03-16T07:47:52.677Z,6.40
2023-03-16T07:50:33.362Z,6.00
2023-03-16T07:53:00.185Z,6.43
2023-03-16T07:55:27.405Z,5.38
2023-03-16T07:57:54.996Z,5.95
2023-03-16T08:00:28.703Z,8.55
2023-03-16T08:02:57.525Z,6.65
2023-03-16T08:05:26.033Z,6.90
2023-03-16T08:07:58.540Z,8.88
2023-03-16T08:10:27.901Z,8.38
2023-03-16T08:13:04.985Z,4.97
2023-03-16T08:15:35.423Z,7.93
2023-03-16T08:18:15.251Z,5.68
2023-03-16T08:20:42.608Z,5.40
2023-03-16T08:23:12.044Z,7.25
2023-03-16T08:25:41.234Z,6.90
2023-03-16T08:28:15.880Z,7.43
2023-03-16T08:30:51.014Z,5.72
2023-03-16T08:33:26.475Z,6.35
2023-03-16T08:35:53.946Z,10.90
2023-03-16T08:38:20.609Z,6.95
2023-03-16T08:40:50.741Z,6.00
2023-03-16T08:43:19.470Z,7.65
2023-03-16T08:45:48.409Z,6.43
2023-03-16T08:48:18.401Z,9.32
2023-03-16T08:50:48.560Z,6.15
2023-03-16T08:53:15.147Z,6.85
2023-03-16T08:55:42.195Z,6.43
2023-03-16T08:58:10.426Z,5.15
2023-03-16T09:00:37.585Z,6.40
2023-03-16T09:03:04.728Z,4.45
2023-03-16T09:05:31.615Z,7.00
2023-03-16T09:07:58.878Z,6.00
2023-03-16T09:10:26.212Z,6.45
2023-03-16T09:12:53.532Z,5.10
2023-03-16T09:15:21.406Z,4.63
2023-03-16T09:17:48.546Z,4.57
2023-03-16T09:20:26.895Z,5.75
2023-03-16T09:22:56.977Z,4.22
2023-03-16T09:25:25.449Z,5.72
2023-03-16T09:27:52.831Z,3.95
2023-03-16T09:30:19.955Z,6.05
2023-03-16T09:32:48.855Z,6.57
2023-03-16T09:35:15.750Z,5.28
2023-03-16T09:37:45.504Z,9.68
2023-03-16T09:40:28.532Z,3.80
2023-03-16T09:43:36.936Z,8.05
2023-03-16T09:46:12.146Z,6.53
2023-03-16T09:48:39.880Z,6.07
2023-03-16T09:51:27.757Z,5.25
2023-03-16T09:53:58.420Z,6.57
2023-03-16T09:56:31.243Z,4.20
2023-03-16T09:58:59.044Z,4.68
2023-03-16T10:01:50.326Z,4.72
2023-03-16T10:04:55.394Z,3.22
2023-03-16T10:07:29.089Z,5.53
2023-03-16T10:10:05.649Z,4.60
2023-03-16T10:12:38.077Z,5.93
2023-03-16T10:15:15.921Z,5.28
2023-03-16T10:17:52.678Z,5.55
2023-03-16T10:20:22.522Z,4.40
2023-03-16T10:22:52.445Z,4.05
2023-03-16T10:25:22.979Z,6.13
2023-03-16T10:27:50.129Z,4.30
2023-03-16T10:30:28.303Z,4.65
2023-03-16T10:32:57.530Z,4.07
2023-03-16T10:35:42.878Z,3.35
2023-03-16T10:40:38.862Z,2.92
2023-03-16T10:43:14.649Z,4.22
2023-03-16T10:45:42.986Z,4.13
2023-03-16T10:48:15.303Z,4.03
2023-03-16T10:50:44.243Z,2.85
2023-03-16T10:53:20.837Z,3.88
2023-03-16T10:55:48.063Z,3.22
2023-03-16T10:58:25.273Z,4.03
2023-03-16T11:00:53.551Z,3.50
2023-03-16T11:03:27.522Z,3.60
2023-03-16T11:06:00.730Z,5.25
2023-03-16T11:08:28.411Z,2.38
2023-03-16T11:11:00.780Z,3.30
2023-03-16T11:13:35.689Z,16.95
2023-03-16T11:16:28.153Z,5.93
2023-03-16T11:18:57.985Z,7.63
2023-03-16T11:22:12.645Z,6.75
2023-03-16T11:25:09.476Z,4.20
2023-03-16T11:27:59.476Z,5.38
2023-03-16T11:30:31.242Z,3.25
2023-03-16T11:33:00.541Z,6.43
2023-03-16T11:35:30.910Z,4.63
2023-03-16T11:38:16.809Z,3.60
2023-03-16T11:41:01.541Z,6.50
2023-03-16T11:43:50.189Z,4.35
2023-03-16T11:46:40.716Z,3.42
2023-03-16T11:49:29.156Z,3.25
2023-03-16T11:52:17.360Z,3.10
2023-03-16T11:54:49.951Z,4.88
2023-03-16T11:57:25.645Z,2.40
2023-03-16T12:00:02.001Z,2.72
2023-03-16T12:02:50.272Z,3.20
2023-03-16T12:05:32.472Z,4.03
2023-03-16T12:08:04.991Z,2.22
2023-03-16T12:10:38.828Z,4.00
2023-03-16T12:13:30.580Z,2.45
2023-03-16T12:16:01.824Z,3.88
2023-03-16T12:18:44.035Z,3.35
2023-03-16T12:21:17.665Z,3.30
2023-03-16T12:23:52.393Z,2.92
2023-03-16T12:26:24.671Z,3.10
2023-03-16T12:28:52.991Z,3.97
2023-03-16T12:31:50.282Z,4.10
2023-03-16T12:34:27.396Z,2.97
2023-03-16T12:37:14.462Z,1.95
2023-03-16T12:40:10.685Z,3.80
2023-03-16T12:42:52.612Z,2.80
2023-03-16T12:45:30.135Z,4.63
2023-03-16T12:48:19.205Z,4.25
2023-03-16T12:50:54.811Z,3.33
2023-03-16T12:53:44.681Z,4.05
2023-03-16T12:56:15.193Z,3.05
2023-03-16T12:58:51.137Z,4.03
2023-03-16T13:01:20.026Z,2.42
2023-03-16T13:03:49.790Z,2.25
2023-03-16T13:06:23.167Z,7.63
2023-03-16T13:09:01.144Z,4.72
2023-03-16T13:11:28.676Z,3.83
2023-03-16T13:14:01.808Z,8.40
2023-03-16T13:16:31.677Z,3.05
2023-03-16T13:18:58.576Z,6.22
2023-03-16T13:21:34.159Z,3.15
2023-03-16T13:24:27.122Z,2.55
2023-03-16T13:26:58.262Z,2.67
2023-03-16T13:29:27.500Z,2.00
2023-03-16T13:31:58.776Z,2.30
2023-03-16T13:34:28.526Z,2.25
2023-03-16T13:36:57.348Z,3.78
2023-03-16T13:39:29.579Z,2.35
2023-03-16T13:42:01.820Z,4.50
2023-03-16T13:44:29.477Z,2.97
2023-03-16T13:46:56.541Z,4.00
2023-03-16T13:49:23.680Z,2.33
2023-03-16T13:51:50.473Z,2.58
2023-03-16T13:54:30.329Z,3.38
2023-03-16T13:56:59.230Z,3.92
2023-03-16T13:59:26.462Z,2.65
2023-03-16T14:02:01.761Z,2.28
2023-03-16T14:04:30.761Z,2.15
2023-03-16T14:07:01.975Z,2.00
2023-03-16T14:09:31.724Z,2.55
2023-03-16T14:11:58.395Z,2.28
2023-03-16T14:14:29.112Z,2.15
2023-03-16T14:17:05.603Z,2.40
2023-03-16T14:20:08.279Z,1.88
2023-03-16T14:22:37.678Z,2.08
2023-03-16T14:25:05.696Z,2.13
2023-03-16T14:27:43.908Z,4.28
2023-03-16T14:30:27.618Z,1.83
2023-03-16T14:33:05.821Z,2.13
2023-03-16T14:35:43.990Z,1.75
2023-03-16T14:38:21.360Z,2.13
2023-03-16T14:40:56.610Z,1.23
2023-03-16T14:43:38.240Z,1.85
2023-03-16T14:46:07.376Z,2.10
2023-03-16T14:48:35.624Z,2.20
2023-03-16T14:51:04.215Z,3.45
2023-03-16T14:53:30.953Z,2.30
2023-03-16T14:55:58.947Z,2.58
2023-03-16T14:58:25.775Z,2.65
2023-03-16T15:00:53.768Z,2.40
2023-03-16T15:03:22.823Z,2.33
2023-03-16T15:05:51.237Z,2.05
2023-03-16T15:08:22.297Z,3.05
2023-03-16T15:10:49.236Z,1.73
2023-03-16T15:13:38.759Z,2.20
2023-03-16T15:16:06.497Z,1.65
2023-03-16T15:18:33.773Z,2.03
2023-03-16T15:21:02.024Z,1.65
2023-03-16T15:23:29.272Z,1.55
2023-03-16T15:26:00.240Z,1.30
2023-03-16T15:28:27.598Z,1.67
2023-03-16T15:30:57.261Z,2.78
2023-03-16T15:33:24.595Z,1.85
2023-03-16T15:35:52.615Z,2.53
2023-03-16T15:38:32.002Z,1.50
2023-03-16T15:40:59.392Z,1.52
2023-03-16T15:43:29.043Z,1.80
2023-03-16T15:45:57.369Z,1.77
2023-03-16T15:48:27.090Z,2.67
2023-03-16T15:51:16.914Z,3.20
2023-03-16T15:53:46.398Z,1.67
2023-03-16T15:56:16.619Z,1.25
2023-03-16T15:58:45.839Z,1.60
2023-03-16T16:01:24.084Z,2.15
2023-03-16T16:03:51.771Z,1.80
2023-03-16T16:06:18.508Z,1.52
2023-03-16T16:08:45.467Z,1.95
2023-03-16T16:11:16.934Z,1.90
2023-03-16T16:13:45.267Z,1.60
2023-03-16T16:16:14.582Z,1.48
2023-03-16T16:18:41.647Z,1.45
2023-03-16T16:21:15.535Z,1.45
2023-03-16T16:23:42.930Z,2.83
2023-03-16T16:26:19.911Z,1.30
2023-03-16T16:28:47.643Z,1.92
2023-03-16T16:31:14.544Z,1.20
2023-03-16T16:33:41.189Z,1.98
2023-03-16T16:36:14.341Z,1.20
2023-03-16T16:38:41.178Z,1.58
2023-03-16T16:41:09.552Z,1.20
2023-03-16T16:43:41.271Z,1.38
2023-03-16T16:46:23.848Z,2.05
2023-03-16T16:48:53.437Z,1.70
2023-03-16T16:51:23.360Z,1.10
2023-03-16T16:53:50.971Z,1.40
2023-03-16T16:56:33.128Z,1.88
2023-03-16T16:59:02.664Z,1.95
2023-03-16T17:01:33.056Z,3.28
2023-03-16T17:04:02.469Z,1.27
2023-03-16T17:06:29.830Z,1.85
2023-03-16T17:08:56.630Z,1.60
2023-03-16T17:11:29.156Z,1.88
2023-03-16T17:13:57.863Z,2.17
2023-03-16T17:16:26.683Z,2.65
2023-03-16T17:18:53.887Z,2.08
2023-03-16T17:21:23.640Z,1.90
2023-03-16T17:23:52.701Z,2.20
2023-03-16T17:26:21.729Z,1.83
2023-03-16T17:28:57.655Z,1.55
2023-03-16T17:31:27.182Z,2.08
2023-03-16T17:33:54.764Z,3.08
2023-03-16T17:36:22.344Z,2.40
2023-03-16T17:38:49.917Z,1.98
2023-03-16T17:41:23.195Z,1.30
2023-03-16T17:43:51.114Z,1.80
2023-03-16T17:46:19.418Z,1.88
2023-03-16T17:48:47.065Z,2.78
2023-03-16T17:51:17.699Z,1.95
2023-03-16T17:53:45.079Z,3.90
2023-03-16T17:56:18.947Z,3.22
2023-03-16T17:58:51.866Z,2.50
2023-03-16T18:01:22.315Z,2.15
2023-03-16T18:03:49.010Z,2.28
2023-03-16T18:06:19.457Z,1.85
2023-03-16T18:08:48.558Z,1.60
2023-03-16T18:11:30.529Z,2.15
2023-03-16T18:13:57.420Z,2.97
2023-03-16T18:16:28.100Z,3.03
2023-03-16T18:19:23.757Z,2.28
2023-03-16T18:21:51.497Z,1.67
2023-03-16T18:24:20.319Z,1.92
2023-03-16T18:26:46.995Z,2.60
2023-03-16T18:29:14.018Z,1.52
2023-03-16T18:31:42.034Z,3.10
2023-03-16T18:34:20.550Z,2.25
2023-03-16T18:36:47.225Z,1.83
2023-03-16T18:39:18.584Z,1.55
2023-03-16T18:41:47.003Z,2.83
2023-03-16T18:44:13.694Z,2.72
2023-03-16T18:46:40.476Z,3.10
2023-03-16T18:49:33.063Z,2.10
2023-03-16T18:51:59.742Z,3.85
2023-03-16T18:54:30.628Z,2.50
2023-03-16T18:56:58.850Z,4.72
2023-03-16T18:59:26.881Z,4.22
2023-03-16T19:01:53.686Z,9.02
2023-03-16T19:04:22.811Z,3.42
2023-03-16T19:06:52.042Z,2.88
2023-03-16T19:09:21.036Z,2.05
2023-03-16T19:11:48.324Z,2.65
2023-03-16T19:14:33.143Z,2.38
2023-03-16T19:16:59.838Z,1.90
2023-03-16T19:19:27.423Z,3.22
2023-03-16T19:22:00.959Z,3.08
2023-03-16T19:24:30.614Z,4.40
2023-03-16T19:26:57.681Z,3.95
2023-03-16T19:29:30.373Z,1.83
2023-03-16T19:31:58.256Z,3.08
2023-03-16T19:34:24.885Z,3.63
2023-03-16T19:36:52.445Z,4.35
2023-03-16T19:39:19.245Z,2.47
2023-03-16T19:41:49.416Z,2.95
2023-03-16T19:44:16.814Z,2.20
2023-03-16T19:46:44.361Z,2.80
2023-03-16T19:49:19.759Z,1.83
2023-03-16T19:51:47.576Z,1.90
2023-03-16T19:54:21.447Z,3.03
2023-03-16T19:56:48.576Z,1.38
2023-03-16T19:59:15.426Z,1.75
2023-03-16T20:01:42.080Z,4.80
2023-03-16T20:04:18.210Z,2.17
2023-03-16T20:06:44.821Z,2.35
2023-03-16T20:09:11.545Z,1.70
2023-03-16T20:11:38.447Z,2.47
2023-03-16T20:14:05.356Z,4.85
2023-03-16T20:16:33.981Z,2.22
2023-03-16T20:19:03.326Z,2.58
2023-03-16T20:21:30.517Z,6.32
2023-03-16T20:23:57.162Z,4.47
2023-03-16T20:26:31.638Z,4.57
2023-03-16T20:28:59.572Z,5.60
2023-03-16T20:31:30.896Z,3.78
2023-03-16T20:33:58.045Z,2.55
2023-03-16T20:36:25.786Z,2.40
2023-03-16T20:38:52.390Z,2.13
2023-03-16T20:41:29.524Z,1.98
2023-03-16T20:43:57.259Z,3.45
2023-03-16T20:46:27.341Z,1.90
2023-03-16T20:48:54.530Z,1.30
2023-03-16T20:51:21.681Z,2.83
2023-03-16T20:53:49.070Z,3.47
2023-03-16T20:56:17.676Z,2.50
2023-03-16T20:58:45.716Z,1.20
2023-03-16T21:01:18.902Z,2.83
2023-03-16T21:03:50.190Z,1.55
2023-03-16T21:06:28.428Z,2.25
2023-03-16T21:08:56.901Z,2.72
2023-03-16T21:11:38.016Z,2.78
2023-03-16T21:14:07.072Z,2.70
2023-03-16T21:16:34.085Z,1.48
2023-03-16T21:19:00.682Z,1.35
2023-03-16T21:21:27.251Z,3.20
2023-03-16T21:23:54.132Z,1.92
2023-03-16T21:26:22.917Z,3.83
2023-03-16T21:28:58.342Z,1.33
2023-03-16T21:31:25.886Z,2.80
2023-03-16T21:33:53.916Z,2.03
2023-03-16T21:36:23.012Z,2.28
2023-03-16T21:38:50.936Z,3.55
2023-03-16T21:41:17.696Z,10.00
2023-03-16T21:43:44.342Z,22.00
2023-03-16T21:46:16.975Z,19.98
2023-03-16T21:48:45.694Z,17.00
2023-03-16T21:51:17.748Z,14.48
2023-03-16T21:53:45.420Z,13.55
2023-03-16T21:56:17.541Z,11.50
2023-03-16T21:58:45.183Z,10.95
2023-03-16T22:01:23.261Z,10.38
2023-03-16T22:03:53.189Z,9.40
2023-03-16T22:06:21.585Z,9.90
2023-03-16T22:08:49.256Z,10.65
2023-03-16T22:11:18.261Z,10.50
2023-03-16T22:13:44.955Z,9.07
2023-03-16T22:16:33.362Z,10.90
2023-03-16T22:19:00.079Z,8.70
2023-03-16T22:21:28.884Z,9.27
2023-03-16T22:23:56.632Z,17.40
2023-03-16T22:26:23.856Z,12.95
2023-03-16T22:28:53.302Z,12.38
2023-03-16T22:31:25.857Z,9.95
2023-03-16T22:33:52.642Z,13.10
2023-03-16T22:36:21.051Z,14.68
2023-03-16T22:38:55.482Z,9.70
2023-03-16T22:41:23.173Z,11.43
2023-03-16T22:43:50.014Z,9.30
2023-03-16T22:46:21.661Z,9.48
2023-03-16T22:48:48.283Z,10.15
2023-03-16T22:51:28.545Z,9.18
2023-03-16T22:53:59.911Z,9.45
2023-03-16T22:56:27.210Z,10.15
2023-03-16T22:59:04.987Z,9.95
2023-03-16T23:01:38.872Z,10.30
2023-03-16T23:04:14.212Z,8.80
2023-03-16T23:06:41.003Z,9.23
2023-03-16T23:09:07.857Z,8.18
2023-03-16T23:11:36.433Z,10.00
2023-03-16T23:14:03.086Z,6.43
2023-03-16T23:16:33.433Z,8.55
2023-03-16T23:19:00.510Z,7.97
2023-03-16T23:21:29.003Z,7.63
2023-03-16T23:24:03.527Z,6.80
2023-03-16T23:26:31.647Z,6.88
2023-03-16T23:28:59.059Z,8.95
2023-03-16T23:31:27.173Z,7.68
2023-03-16T23:33:54.192Z,6.45
2023-03-16T23:36:23.088Z,6.45
2023-03-16T23:38:50.450Z,9.75
2023-03-16T23:41:22.725Z,6.68
2023-03-16T23:43:50.923Z,7.18
2023-03-16T23:46:19.341Z,7.00
2023-03-16T23:48:46.903Z,9.05
2023-03-16T23:51:22.189Z,6.78
2023-03-16T23:53:49.431Z,6.13
2023-03-16T23:56:16.320Z,6.88
2023-03-16T23:58:42.939Z,6.05
